Time;durP1;ratioP1;P1;durP2;ratioP2;P2;SDS_P1;SDS_P2;PMS_P1;PMS_P2;Temp;Humidity;BMP_temperature;BMP_pressure;BME280_temperature;BME280_humidity;BME280_pressure;Samples;Min_cycle;Max_cycle;Signal;HPM_P1;HPM_P2
2023/12/31 00:00:23;;;;;;;2.20;1.73;;;;;;;;;;4999657;28;90219;-70
2023/12/31 00:02:50;;;;;;;4.03;1.85;;;;;;;;;;5006704;28;88034;-70
2023/12/31 00:05:16;;;;;;;2.50;2.00;;;;;;;;;;5004257;28;89039;-70
2023/12/31 00:07:42;;;;;;;6.97;2.15;;;;;;;;;;5004721;28;90285;-70
2023/12/31 00:10:09;;;;;;;3.00;2.03;;;;;;;;;;5002088;28;89099;-70
2023/12/31 00:12:35;;;;;;;2.08;1.65;;;;;;;;;;5007169;28;89705;-70
2023/12/31 00:15:02;;;;;;;3.85;1.92;;;;;;;;;;5009503;28;88122;-71
2023/12/31 00:17:29;;;;;;;4.55;1.70;;;;;;;;;;5004164;28;90149;-70
2023/12/31 00:19:55;;;;;;;5.35;1.85;;;;;;;;;;5006920;28;88565;-70
2023/12/31 00:22:22;;;;;;;4.80;1.88;;;;;;;;;;5006980;28;88023;-71
2023/12/31 00:24:54;;;;;;;4.05;1.60;;;;;;;;;;5003099;28;88304;-70
2023/12/31 00:27:20;;;;;;;4.28;1.60;;;;;;;;;;5009841;28;88175;-70
2023/12/31 00:29:47;;;;;;;2.78;1.88;;;;;;;;;;5003847;28;88660;-70
2023/12/31 00:32:14;;;;;;;2.10;1.77;;;;;;;;;;5003811;28;90039;-70
2023/12/31 00:34:40;;;;;;;2.90;1.80;;;;;;;;;;5001973;28;88070;-70
2023/12/31 00:37:07;;;;;;;3.17;1.70;;;;;;;;;;5004155;28;89073;-70
2023/12/31 00:39:33;;;;;;;1.50;1.38;;;;;;;;;;5004224;28;89069;-70
2023/12/31 00:42:00;;;;;;;1.63;1.10;;;;;;;;;;5004525;28;87966;-70
2023/12/31 00:44:26;;;;;;;1.67;1.30;;;;;;;;;;5002794;28;89293;-70
2023/12/31 00:46:52;;;;;;;2.55;1.50;;;;;;;;;;4996247;28;88220;-70
2023/12/31 00:49:19;;;;;;;3.55;1.40;;;;;;;;;;5002025;28;88781;-70
2023/12/31 00:51:45;;;;;;;2.55;1.70;;;;;;;;;;4991845;28;88854;-70
2023/12/31 00:54:11;;;;;;;2.38;1.60;;;;;;;;;;5001466;28;88174;-70
2023/12/31 00:56:38;;;;;;;2.20;1.30;;;;;;;;;;5005312;28;89067;-70
2023/12/31 00:59:04;;;;;;;2.58;1.50;;;;;;;;;;4995678;28;88102;-70
2023/12/31 01:01:30;;;;;;;4.35;1.50;;;;;;;;;;4997965;28;90194;-70
2023/12/31 01:03:57;;;;;;;2.65;1.40;;;;;;;;;;5003134;28;90151;-70
2023/12/31 01:06:23;;;;;;;2.28;1.30;;;;;;;;;;5005146;28;88969;-70
2023/12/31 01:08:51;;;;;;;2.80;1.40;;;;;;;;;;5004278;28;88729;-70
2023/12/31 01:11:17;;;;;;;3.05;1.58;;;;;;;;;;5005900;28;88971;-70
2023/12/31 01:13:43;;;;;;;2.88;1.40;;;;;;;;;;5001713;28;87835;-70
2023/12/31 01:16:10;;;;;;;4.30;1.10;;;;;;;;;;5004457;28;88183;-70
2023/12/31 01:18:36;;;;;;;1.85;1.10;;;;;;;;;;5001948;28;89640;-70
2023/12/31 01:21:03;;;;;;;2.30;0.95;;;;;;;;;;5003096;28;88858;-70
2023/12/31 01:23:29;;;;;;;1.38;1.10;;;;;;;;;;4998873;28;88496;-70
2023/12/31 01:25:56;;;;;;;2.38;1.27;;;;;;;;;;5002563;28;88094;-78
2023/12/31 01:28:22;;;;;;;4.53;1.40;;;;;;;;;;5005932;28;88711;-78
2023/12/31 01:30:48;;;;;;;1.52;0.93;;;;;;;;;;5006275;28;89055;-78
2023/12/31 01:33:15;;;;;;;5.97;1.30;;;;;;;;;;5004142;28;88128;-78
2023/12/31 01:35:41;;;;;;;2.53;0.85;;;;;;;;;;5004563;28;88787;-78
2023/12/31 01:38:08;;;;;;;2.90;0.93;;;;;;;;;;5002001;28;88289;-79
2023/12/31 01:40:34;;;;;;;4.43;1.20;;;;;;;;;;5010372;28;88146;-78
2023/12/31 01:43:01;;;;;;;3.95;1.15;;;;;;;;;;4994981;28;89341;-78
2023/12/31 01:45:28;;;;;;;4.75;1.45;;;;;;;;;;5007171;28;88753;-77
2023/12/31 01:47:54;;;;;;;3.15;1.10;;;;;;;;;;5007906;28;89608;-77
2023/12/31 01:50:21;;;;;;;2.13;1.00;;;;;;;;;;5004968;28;89048;-78
2023/12/31 01:52:48;;;;;;;1.80;1.08;;;;;;;;;;5004483;28;88227;-77
2023/12/31 01:55:15;;;;;;;3.50;1.10;;;;;;;;;;5003531;28;88685;-77
2023/12/31 01:57:42;;;;;;;4.93;1.30;;;;;;;;;;4999769;28;88945;-77
2023/12/31 02:00:08;;;;;;;3.17;0.90;;;;;;;;;;5003676;28;88144;-78
2023/12/31 02:02:35;;;;;;;2.83;1.30;;;;;;;;;;5002855;28;88516;-79
2023/12/31 02:05:02;;;;;;;1.88;0.95;;;;;;;;;;4997814;28;88075;-79
2023/12/31 02:07:28;;;;;;;4.53;1.15;;;;;;;;;;5005386;28;88789;-77
2023/12/31 02:09:55;;;;;;;3.47;1.20;;;;;;;;;;5000131;28;90283;-78
2023/12/31 02:12:22;;;;;;;4.63;1.17;;;;;;;;;;5005429;28;88179;-77
2023/12/31 02:14:49;;;;;;;1.30;1.15;;;;;;;;;;5000708;28;88380;-77
2023/12/31 02:17:15;;;;;;;7.72;1.52;;;;;;;;;;4999572;28;88994;-77
2023/12/31 02:19:42;;;;;;;2.92;1.15;;;;;;;;;;5001510;28;88233;-78
2023/12/31 02:22:08;;;;;;;5.47;0.93;;;;;;;;;;5000851;28;88680;-78
2023/12/31 02:24:40;;;;;;;3.22;1.10;;;;;;;;;;5006472;28;88824;-78
2023/12/31 02:27:06;;;;;;;2.35;0.90;;;;;;;;;;5004803;28;88808;-78
2023/12/31 02:29:32;;;;;;;5.30;0.90;;;;;;;;;;5006060;28;89422;-77
2023/12/31 02:31:59;;;;;;;3.22;0.93;;;;;;;;;;4999724;28;88182;-78
2023/12/31 02:34:25;;;;;;;2.40;1.00;;;;;;;;;;5003891;28;88729;-78
2023/12/31 02:36:51;;;;;;;4.10;1.00;;;;;;;;;;4999239;28;89046;-77
2023/12/31 02:39:18;;;;;;;1.35;0.88;;;;;;;;;;5009962;28;89206;-78
2023/12/31 02:41:45;;;;;;;1.45;0.80;;;;;;;;;;4992963;28;88777;-78
2023/12/31 02:44:11;;;;;;;2.00;1.08;;;;;;;;;;5007259;28;90030;-78
2023/12/31 02:46:37;;;;;;;4.15;1.08;;;;;;;;;;5008201;28;88095;-78
2023/12/31 02:49:06;;;;;;;1.85;1.02;;;;;;;;;;5000999;28;88787;-78
2023/12/31 02:51:33;;;;;;;3.35;1.05;;;;;;;;;;5005973;28;89511;-77
2023/12/31 02:53:59;;;;;;;2.45;0.98;;;;;;;;;;5001634;28;88224;-78
2023/12/31 02:56:25;;;;;;;3.00;1.05;;;;;;;;;;5005463;28;88403;-78
2023/12/31 02:58:52;;;;;;;3.25;0.90;;;;;;;;;;5000191;28;88770;-78
2023/12/31 03:01:18;;;;;;;5.03;1.20;;;;;;;;;;5005807;28;89548;-78
2023/12/31 03:03:45;;;;;;;4.60;1.08;;;;;;;;;;5005286;28;89309;-78
2023/12/31 03:06:14;;;;;;;2.03;0.88;;;;;;;;;;5007482;28;88107;-77
2023/12/31 03:08:41;;;;;;;2.92;1.00;;;;;;;;;;4999779;28;89574;-77
2023/12/31 03:11:08;;;;;;;2.42;1.00;;;;;;;;;;5003063;28;88419;-78
2023/12/31 03:13:35;;;;;;;2.47;1.15;;;;;;;;;;5001314;28;88779;-78
2023/12/31 03:16:05;;;;;;;2.80;0.82;;;;;;;;;;5001470;28;88649;-78
2023/12/31 03:18:31;;;;;;;2.67;1.27;;;;;;;;;;5008546;28;88291;-78
2023/12/31 03:20:58;;;;;;;10.65;1.27;;;;;;;;;;5007922;28;89072;-78
2023/12/31 03:23:24;;;;;;;57.40;19.42;;;;;;;;;;5006590;28;89829;-78
2023/12/31 03:25:51;;;;;;;1.27;0.90;;;;;;;;;;5008909;28;89404;-77
2023/12/31 03:28:17;;;;;;;2.28;1.15;;;;;;;;;;5008591;28;88208;-77
2023/12/31 03:30:44;;;;;;;2.25;1.20;;;;;;;;;;5006356;28;88072;-78
2023/12/31 03:33:10;;;;;;;1.35;1.17;;;;;;;;;;5005896;28;88966;-78
2023/12/31 03:35:37;;;;;;;3.05;1.17;;;;;;;;;;5002391;28;90662;-78
2023/12/31 03:38:03;;;;;;;1.20;1.10;;;;;;;;;;5008031;28;89112;-77
2023/12/31 03:40:29;;;;;;;1.67;1.23;;;;;;;;;;5009128;28;88725;-77
2023/12/31 03:42:56;;;;;;;3.38;1.35;;;;;;;;;;5007699;28;89593;-78
2023/12/31 03:45:22;;;;;;;1.70;1.20;;;;;;;;;;5011561;28;87936;-77
2023/12/31 03:47:48;;;;;;;2.33;1.05;;;;;;;;;;5005990;28;88839;-70
2023/12/31 03:50:16;;;;;;;2.65;1.20;;;;;;;;;;5005019;28;88979;-70
2023/12/31 03:52:43;;;;;;;1.40;1.13;;;;;;;;;;5006780;28;89704;-70
2023/12/31 03:55:09;;;;;;;3.33;1.23;;;;;;;;;;5003928;28;88922;-70
2023/12/31 03:57:36;;;;;;;6.28;1.48;;;;;;;;;;5002984;28;88549;-69
2023/12/31 04:00:03;;;;;;;1.63;1.02;;;;;;;;;;5006520;28;88785;-70
2023/12/31 04:02:30;;;;;;;2.85;1.08;;;;;;;;;;5003729;28;88972;-70
2023/12/31 04:04:57;;;;;;;2.20;0.93;;;;;;;;;;5000058;28;91025;-70
2023/12/31 04:07:23;;;;;;;3.05;1.45;;;;;;;;;;5006425;28;88222;-70
2023/12/31 04:09:50;;;;;;;2.33;1.00;;;;;;;;;;5001771;28;89307;-70
2023/12/31 04:12:16;;;;;;;1.83;1.05;;;;;;;;;;5009385;28;88724;-70
2023/12/31 04:14:43;;;;;;;2.05;1.27;;;;;;;;;;5006307;28;89057;-70
2023/12/31 04:17:09;;;;;;;6.72;1.52;;;;;;;;;;5006389;28;88106;-70
2023/12/31 04:19:35;;;;;;;3.25;1.50;;;;;;;;;;5007440;28;88746;-70
2023/12/31 04:22:02;;;;;;;3.90;1.50;;;;;;;;;;5001978;28;89061;-70
2023/12/31 04:24:28;;;;;;;1.45;1.35;;;;;;;;;;5005048;28;88286;-70
2023/12/31 04:26:57;;;;;;;1.42;1.10;;;;;;;;;;5004432;28;88745;-70
2023/12/31 04:29:23;;;;;;;1.45;1.15;;;;;;;;;;5007740;28;88600;-70
2023/12/31 04:31:49;;;;;;;2.58;1.30;;;;;;;;;;5002108;28;88132;-70
2023/12/31 04:34:20;;;;;;;2.03;1.35;;;;;;;;;;5002831;28;88762;-70
2023/12/31 04:36:46;;;;;;;2.60;1.30;;;;;;;;;;5003308;28;88960;-70
2023/12/31 04:39:13;;;;;;;2.10;1.40;;;;;;;;;;5005550;28;89742;-70
2023/12/31 04:41:39;;;;;;;2.45;1.20;;;;;;;;;;5007659;28;89178;-70
2023/12/31 04:44:06;;;;;;;4.28;1.42;;;;;;;;;;5006141;28;88091;-70
2023/12/31 04:46:33;;;;;;;2.38;1.23;;;;;;;;;;5009143;28;88113;-70
2023/12/31 04:48:59;;;;;;;8.95;2.10;;;;;;;;;;5005111;28;88769;-70
2023/12/31 04:51:26;;;;;;;9.43;5.00;;;;;;;;;;5000101;28;89967;-70
2023/12/31 04:53:53;;;;;;;6.25;3.95;;;;;;;;;;5008866;28;88476;-70
2023/12/31 04:56:28;;;;;;;3.97;2.38;;;;;;;;;;5009865;28;88794;-70
2023/12/31 04:58:56;;;;;;;2.78;2.28;;;;;;;;;;5003049;28;90583;-70
2023/12/31 05:01:22;;;;;;;3.20;1.55;;;;;;;;;;5001339;28;89811;-70
2023/12/31 05:03:49;;;;;;;2.90;2.33;;;;;;;;;;5003878;28;88543;-70
2023/12/31 05:06:16;;;;;;;4.75;2.03;;;;;;;;;;5004970;28;88642;-70
2023/12/31 05:08:43;;;;;;;3.53;1.80;;;;;;;;;;4999452;28;89387;-70
2023/12/31 05:11:10;;;;;;;1.88;1.58;;;;;;;;;;5001698;28;89779;-69
2023/12/31 05:13:37;;;;;;;3.80;1.70;;;;;;;;;;5006328;28;88884;-70
2023/12/31 05:16:03;;;;;;;2.22;1.60;;;;;;;;;;5010212;28;91081;-70
2023/12/31 05:18:30;;;;;;;2.05;1.20;;;;;;;;;;5001035;28;88817;-70
2023/12/31 05:20:56;;;;;;;4.03;1.77;;;;;;;;;;5010321;28;89159;-70
2023/12/31 05:23:23;;;;;;;5.13;1.50;;;;;;;;;;4998441;28;88647;-70
2023/12/31 05:25:50;;;;;;;2.38;1.38;;;;;;;;;;5005661;28;88784;-69
2023/12/31 05:28:16;;;;;;;2.65;1.50;;;;;;;;;;5002655;28;88711;-70
2023/12/31 05:30:43;;;;;;;2.97;1.40;;;;;;;;;;5003075;28;88197;-70
2023/12/31 05:33:12;;;;;;;15.05;7.43;;;;;;;;;;5004353;28;89241;-70
2023/12/31 05:35:39;;;;;;;2.22;1.40;;;;;;;;;;5006357;28;88985;-70
2023/12/31 05:38:05;;;;;;;1.65;1.55;;;;;;;;;;5004115;28;88106;-70
2023/12/31 05:40:32;;;;;;;6.93;1.50;;;;;;;;;;5002409;28;88914;-70
2023/12/31 05:42:58;;;;;;;2.40;1.50;;;;;;;;;;5000339;28;87925;-70
2023/12/31 05:45:24;;;;;;;1.98;1.50;;;;;;;;;;5007926;28;88174;-70
2023/12/31 05:47:51;;;;;;;2.25;1.60;;;;;;;;;;4998684;28;88974;-70
2023/12/31 05:50:17;;;;;;;2.42;1.48;;;;;;;;;;5004854;28;88915;-70
2023/12/31 05:52:44;;;;;;;3.10;1.42;;;;;;;;;;5002991;28;88545;-70
2023/12/31 05:55:11;;;;;;;4.75;1.58;;;;;;;;;;4998791;28;89322;-70
2023/12/31 05:57:39;;;;;;;3.22;1.50;;;;;;;;;;5001955;28;88494;-70
2023/12/31 06:00:07;;;;;;;2.45;1.77;;;;;;;;;;5004196;28;88617;-70
2023/12/31 06:02:33;;;;;;;9.05;4.05;;;;;;;;;;5005163;28;90917;-70
2023/12/31 06:05:00;;;;;;;43.33;13.77;;;;;;;;;;5007836;28;88700;-70
2023/12/31 06:07:26;;;;;;;3.53;2.05;;;;;;;;;;4998036;28;89166;-78
2023/12/31 06:09:52;;;;;;;4.88;1.92;;;;;;;;;;4999872;28;90486;-77
2023/12/31 06:12:19;;;;;;;3.30;1.80;;;;;;;;;;5004785;28;90417;-78
2023/12/31 06:14:45;;;;;;;2.63;1.60;;;;;;;;;;5008649;28;89722;-78
2023/12/31 06:17:12;;;;;;;2.85;1.83;;;;;;;;;;5005491;28;88997;-77
2023/12/31 06:19:39;;;;;;;2.70;2.05;;;;;;;;;;5007170;28;90122;-78
2023/12/31 06:22:06;;;;;;;4.32;1.80;;;;;;;;;;5005844;28;89320;-77
2023/12/31 06:24:33;;;;;;;2.42;2.15;;;;;;;;;;5004827;28;88156;-78
2023/12/31 06:27:00;;;;;;;2.83;1.92;;;;;;;;;;5001607;28;89004;-77
2023/12/31 06:29:26;;;;;;;3.22;2.08;;;;;;;;;;5004214;28;88740;-78
2023/12/31 06:31:53;;;;;;;2.60;2.00;;;;;;;;;;5039442;27;88400;-78
2023/12/31 06:34:19;;;;;;;3.88;2.08;;;;;;;;;;5005561;28;89115;-78
2023/12/31 06:36:45;;;;;;;3.65;2.08;;;;;;;;;;5005336;28;88171;-79
2023/12/31 06:39:12;;;;;;;1.92;1.80;;;;;;;;;;5003181;28;89026;-77
2023/12/31 06:41:38;;;;;;;2.95;1.90;;;;;;;;;;5000035;28;90152;-78
2023/12/31 06:44:05;;;;;;;4.00;2.30;;;;;;;;;;5005519;28;88052;-78
2023/12/31 06:46:31;;;;;;;2.47;1.90;;;;;;;;;;5002910;28;89294;-78
2023/12/31 06:48:57;;;;;;;3.30;2.10;;;;;;;;;;4998376;28;88218;-78
2023/12/31 06:51:24;;;;;;;6.20;2.50;;;;;;;;;;5000640;28;88692;-78
2023/12/31 06:53:50;;;;;;;11.00;4.97;;;;;;;;;;5008294;28;88901;-78
2023/12/31 06:56:17;;;;;;;3.78;1.92;;;;;;;;;;5008045;28;90125;-79
2023/12/31 06:58:44;;;;;;;3.00;2.33;;;;;;;;;;5003103;28;89458;-79
2023/12/31 07:01:10;;;;;;;3.40;2.13;;;;;;;;;;5006843;28;90235;-79
2023/12/31 07:03:37;;;;;;;3.72;2.50;;;;;;;;;;5005392;28;88837;-78
2023/12/31 07:06:03;;;;;;;3.42;2.70;;;;;;;;;;5008361;28;89068;-79
2023/12/31 07:08:29;;;;;;;2.95;2.10;;;;;;;;;;5001678;28;88403;-78
2023/12/31 07:10:56;;;;;;;3.42;1.90;;;;;;;;;;5001764;28;88735;-78
2023/12/31 07:13:22;;;;;;;5.00;2.75;;;;;;;;;;5005318;28;88994;-78
2023/12/31 07:15:50;;;;;;;3.22;2.30;;;;;;;;;;5009842;28;88400;-79
2023/12/31 07:18:16;;;;;;;4.35;2.13;;;;;;;;;;5006591;28;90139;-70
2023/12/31 07:20:43;;;;;;;4.97;3.78;;;;;;;;;;5005105;28;89111;-70
2023/12/31 07:23:09;;;;;;;2.58;2.13;;;;;;;;;;5000661;28;88107;-72
2023/12/31 07:25:36;;;;;;;2.35;2.10;;;;;;;;;;5009536;28;89155;-70
2023/12/31 07:28:03;;;;;;;2.97;2.30;;;;;;;;;;5005295;28;88943;-70
2023/12/31 07:30:29;;;;;;;2.05;1.85;;;;;;;;;;5004370;28;89417;-70
2023/12/31 07:32:56;;;;;;;2.65;2.00;;;;;;;;;;5002142;28;89185;-70
2023/12/31 07:35:22;;;;;;;3.65;2.17;;;;;;;;;;5003546;28;88084;-71
2023/12/31 07:37:48;;;;;;;2.15;1.95;;;;;;;;;;4999562;28;88862;-70
2023/12/31 07:40:15;;;;;;;2.28;2.08;;;;;;;;;;5006313;28;89263;-70
2023/12/31 07:42:42;;;;;;;3.75;1.92;;;;;;;;;;5005420;28;88543;-70
2023/12/31 07:45:08;;;;;;;2.70;2.40;;;;;;;;;;5005862;28;88565;-71
2023/12/31 07:47:37;;;;;;;2.42;2.22;;;;;;;;;;5008554;28;88973;-70
2023/12/31 07:50:04;;;;;;;3.17;2.08;;;;;;;;;;5011260;28;88782;-70
2023/12/31 07:52:31;;;;;;;4.00;2.28;;;;;;;;;;5004322;28;90135;-70
2023/12/31 07:54:58;;;;;;;2.55;1.98;;;;;;;;;;5004062;28;88314;-70
2023/12/31 07:57:24;;;;;;;2.88;2.40;;;;;;;;;;5002003;28;88808;-70
2023/12/31 07:59:50;;;;;;;3.35;2.00;;;;;;;;;;5004974;28;89436;-70
2023/12/31 08:02:17;;;;;;;3.33;2.45;;;;;;;;;;5003889;28;88124;-70
2023/12/31 08:04:43;;;;;;;1.95;1.75;;;;;;;;;;5000757;28;88677;-70
2023/12/31 08:07:10;;;;;;;85.25;24.58;;;;;;;;;;5007017;28;89028;-70
2023/12/31 08:09:36;;;;;;;10.25;2.30;;;;;;;;;;5005599;28;89729;-70
2023/12/31 08:12:03;;;;;;;3.05;2.33;;;;;;;;;;5008133;28;90049;-70
2023/12/31 08:14:29;;;;;;;3.97;2.15;;;;;;;;;;4999707;28;88555;-70
2023/12/31 08:16:56;;;;;;;2.35;2.05;;;;;;;;;;5002751;28;88659;-70
2023/12/31 08:19:22;;;;;;;3.88;2.35;;;;;;;;;;5009859;28;89395;-70
2023/12/31 08:21:49;;;;;;;2.83;2.45;;;;;;;;;;5003299;28;88882;-70
2023/12/31 08:24:20;;;;;;;6.20;2.78;;;;;;;;;;5004544;28;89094;-70
2023/12/31 08:26:46;;;;;;;5.15;2.38;;;;;;;;;;5005295;28;88977;-71
2023/12/31 08:29:13;;;;;;;6.13;2.53;;;;;;;;;;5002024;28;88064;-70
2023/12/31 08:31:39;;;;;;;2.50;2.30;;;;;;;;;;5008406;28;88723;-71
2023/12/31 08:34:06;;;;;;;3.10;2.25;;;;;;;;;;5003123;28;87831;-71
2023/12/31 08:36:32;;;;;;;3.42;2.80;;;;;;;;;;5008640;28;88038;-71
2023/12/31 08:38:58;;;;;;;5.13;2.25;;;;;;;;;;5004111;28;89040;-71
2023/12/31 08:41:25;;;;;;;4.13;2.67;;;;;;;;;;4999455;28;89483;-70
2023/12/31 08:43:51;;;;;;;3.65;2.60;;;;;;;;;;5000455;28;89802;-70
2023/12/31 08:46:18;;;;;;;4.82;2.70;;;;;;;;;;5006070;28;90413;-71
2023/12/31 08:48:44;;;;;;;5.40;2.67;;;;;;;;;;5005101;28;88129;-71
2023/12/31 08:51:10;;;;;;;3.08;2.70;;;;;;;;;;5001643;28;88616;-69
2023/12/31 08:53:37;;;;;;;3.70;2.90;;;;;;;;;;5003720;28;88994;-70
2023/12/31 08:56:04;;;;;;;5.18;3.03;;;;;;;;;;4998066;28;88701;-69
2023/12/31 08:58:30;;;;;;;4.15;2.92;;;;;;;;;;5002420;28;88353;-70
2023/12/31 09:00:57;;;;;;;4.30;3.05;;;;;;;;;;5005766;28;89490;-69
2023/12/31 09:03:24;;;;;;;4.78;3.35;;;;;;;;;;5005343;28;89521;-69
2023/12/31 09:05:50;;;;;;;4.80;3.60;;;;;;;;;;5005107;28;92189;-69
2023/12/31 09:08:17;;;;;;;5.30;3.40;;;;;;;;;;5005193;28;88869;-72
2023/12/31 09:10:43;;;;;;;7.70;3.55;;;;;;;;;;5005987;28;88768;-69
2023/12/31 09:13:10;;;;;;;6.90;3.22;;;;;;;;;;5005519;28;89722;-76
2023/12/31 09:15:37;;;;;;;2.80;2.60;;;;;;;;;;5001121;28;90390;-73
2023/12/31 09:18:03;;;;;;;3.08;2.88;;;;;;;;;;5002987;28;89044;-72
2023/12/31 09:20:31;;;;;;;3.78;2.95;;;;;;;;;;5007338;28;87990;-73
2023/12/31 09:22:59;;;;;;;8.98;5.55;;;;;;;;;;5002411;28;88669;-69
2023/12/31 09:25:26;;;;;;;3.58;2.90;;;;;;;;;;5006445;28;89196;-70
2023/12/31 09:27:53;;;;;;;4.25;2.90;;;;;;;;;;5003923;28;88504;-68
2023/12/31 09:30:19;;;;;;;4.38;2.75;;;;;;;;;;5005629;28;88828;-68
2023/12/31 09:32:46;;;;;;;5.75;2.88;;;;;;;;;;5003114;28;89009;-69
2023/12/31 09:35:12;;;;;;;4.40;2.80;;;;;;;;;;5005160;28;88607;-73
2023/12/31 09:37:38;;;;;;;2.00;1.90;;;;;;;;;;5000316;28;89529;-71
2023/12/31 09:40:05;;;;;;;4.32;2.67;;;;;;;;;;5007249;28;88812;-72
2023/12/31 09:42:38;;;;;;;96.90;25.95;;;;;;;;;;5006711;28;88855;-73
2023/12/31 09:45:07;;;;;;;1.92;0.85;;;;;;;;;;5004007;28;89090;-68
2023/12/31 09:47:34;;;;;;;11.48;2.45;;;;;;;;;;5001579;28;90050;-69
2023/12/31 09:50:01;;;;;;;1.85;0.70;;;;;;;;;;5004597;28;91155;-70
2023/12/31 09:52:29;;;;;;;1.35;0.93;;;;;;;;;;5000970;28;90307;-72
2023/12/31 09:54:57;;;;;;;4.25;1.15;;;;;;;;;;4995665;28;91232;-74
2023/12/31 09:57:23;;;;;;;1.83;0.80;;;;;;;;;;5006607;28;89488;-74
2023/12/31 09:59:51;;;;;;;5.07;1.05;;;;;;;;;;5003115;28;88175;-71
2023/12/31 10:02:19;;;;;;;2.05;1.05;;;;;;;;;;5006005;28;89938;-76
2023/12/31 10:04:47;;;;;;;2.78;1.23;;;;;;;;;;5007299;28;89044;-74
2023/12/31 10:07:14;;;;;;;0.82;0.80;;;;;;;;;;5004282;28;88099;-75
2023/12/31 10:09:40;;;;;;;3.20;0.90;;;;;;;;;;4998741;28;88807;-77
2023/12/31 10:12:07;;;;;;;0.80;0.80;;;;;;;;;;5005087;28;88221;-76
2023/12/31 10:14:33;;;;;;;1.00;0.85;;;;;;;;;;5006003;28;88543;-67
2023/12/31 10:17:00;;;;;;;2.03;1.08;;;;;;;;;;5002610;28;88839;-68
2023/12/31 10:19:26;;;;;;;1.88;0.93;;;;;;;;;;5005423;28;90387;-68
2023/12/31 10:21:52;;;;;;;3.13;0.88;;;;;;;;;;5002335;28;89483;-72
2023/12/31 10:24:25;;;;;;;0.73;0.70;;;;;;;;;;5006401;28;90172;-72
2023/12/31 10:26:51;;;;;;;1.38;0.93;;;;;;;;;;5004979;28;88135;-72
2023/12/31 10:29:19;;;;;;;3.13;1.00;;;;;;;;;;5005599;28;88829;-72
2023/12/31 10:31:47;;;;;;;2.53;0.77;;;;;;;;;;5006840;28;88830;-72
2023/12/31 10:34:15;;;;;;;1.25;0.90;;;;;;;;;;5003431;28;88557;-69
2023/12/31 10:36:45;;;;;;;2.88;0.90;;;;;;;;;;5009079;28;88696;-77
2023/12/31 10:39:24;;;;;;;0.95;0.60;;;;;;;;;;5007044;28;89532;-74
2023/12/31 10:41:53;;;;;;;1.20;1.10;;;;;;;;;;5003811;28;88085;-74
2023/12/31 10:44:20;;;;;;;1.65;1.52;;;;;;;;;;5003031;28;90007;-73
2023/12/31 10:46:47;;;;;;;6.10;2.60;;;;;;;;;;5006863;28;88126;-72
2023/12/31 10:49:15;;;;;;;4.93;2.53;;;;;;;;;;5002566;28;89006;-69
2023/12/31 10:51:44;;;;;;;7.40;5.50;;;;;;;;;;5009791;28;92039;-70
2023/12/31 10:54:15;;;;;;;14.88;6.03;;;;;;;;;;5007668;28;88189;-69
2023/12/31 10:56:41;;;;;;;3.70;2.05;;;;;;;;;;5009893;28;88795;-69
2023/12/31 10:59:10;;;;;;;4.38;2.78;;;;;;;;;;5003168;28;89027;-69
2023/12/31 11:01:37;;;;;;;23.80;13.85;;;;;;;;;;5000945;28;91549;-66
2023/12/31 11:04:04;;;;;;;11.35;7.05;;;;;;;;;;5012173;28;89908;-67
2023/12/31 11:06:30;;;;;;;34.60;18.30;;;;;;;;;;5005014;28;90300;-66
2023/12/31 11:08:57;;;;;;;9.40;3.22;;;;;;;;;;5005458;28;89570;-65
2023/12/31 11:11:23;;;;;;;4.35;1.65;;;;;;;;;;5006963;28;90031;-66
2023/12/31 11:13:52;;;;;;;2.55;1.35;;;;;;;;;;5003883;28;88064;-66
2023/12/31 11:16:37;;;;;;;1.92;1.33;;;;;;;;;;5000423;28;89634;-67
2023/12/31 11:19:18;;;;;;;5.20;2.35;;;;;;;;;;5003452;28;88808;-63
2023/12/31 11:21:51;;;;;;;221.35;69.68;;;;;;;;;;5004163;28;88028;-64
2023/12/31 11:24:22;;;;;;;1.17;0.90;;;;;;;;;;5005680;28;89918;-63
2023/12/31 11:27:07;;;;;;;1.58;0.88;;;;;;;;;;5002926;28;90039;-65
2023/12/31 11:29:33;;;;;;;80.53;27.55;;;;;;;;;;5006500;28;91407;-67
2023/12/31 11:32:00;;;;;;;1.30;0.73;;;;;;;;;;5002878;28;89087;-68
2023/12/31 11:34:26;;;;;;;1.30;1.00;;;;;;;;;;5003450;28;90108;-67
2023/12/31 11:36:54;;;;;;;2.08;0.95;;;;;;;;;;5008631;28;89634;-66
2023/12/31 11:39:20;;;;;;;5.85;1.90;;;;;;;;;;4998854;28;89318;-67
2023/12/31 11:41:52;;;;;;;1.20;1.08;;;;;;;;;;5005854;28;88188;-66
2023/12/31 11:44:37;;;;;;;2.38;1.05;;;;;;;;;;5006377;28;88971;-66
2023/12/31 11:47:15;;;;;;;1.92;1.00;;;;;;;;;;5004826;28;89875;-66
2023/12/31 11:49:48;;;;;;;7.38;0.68;;;;;;;;;;5003084;28;88811;-67
2023/12/31 11:52:15;;;;;;;8.98;1.88;;;;;;;;;;5005246;28;88255;-66
2023/12/31 11:54:43;;;;;;;4.47;0.85;;;;;;;;;;5001505;28;90821;-65
2023/12/31 11:57:10;;;;;;;3.88;1.13;;;;;;;;;;4998028;28;89392;-65
2023/12/31 11:59:37;;;;;;;2.85;0.82;;;;;;;;;;5001047;28;91509;-66
2023/12/31 12:02:05;;;;;;;5.63;1.80;;;;;;;;;;5009327;28;89056;-64
2023/12/31 12:04:32;;;;;;;3.80;0.95;;;;;;;;;;5005825;28;88774;-64
2023/12/31 12:06:59;;;;;;;3.70;1.13;;;;;;;;;;5002686;28;89132;-65
2023/12/31 12:09:27;;;;;;;1.75;1.00;;;;;;;;;;5007913;28;88279;-63
2023/12/31 12:12:01;;;;;;;4.60;1.30;;;;;;;;;;5008713;28;88997;-63
2023/12/31 12:14:27;;;;;;;3.88;1.27;;;;;;;;;;5007201;28;88461;-63
2023/12/31 12:16:54;;;;;;;3.58;1.00;;;;;;;;;;5006003;28;88594;-64
2023/12/31 12:19:24;;;;;;;2.67;1.20;;;;;;;;;;5006050;28;90712;-64
2023/12/31 12:21:50;;;;;;;8.67;3.80;;;;;;;;;;5006608;28;88108;-64
2023/12/31 12:24:17;;;;;;;5.40;1.30;;;;;;;;;;5000459;28;89847;-63
2023/12/31 12:26:50;;;;;;;4.20;1.38;;;;;;;;;;5000752;28;89650;-63
2023/12/31 12:29:17;;;;;;;12.82;4.35;;;;;;;;;;5004244;28;88117;-64
2023/12/31 12:31:45;;;;;;;4.68;1.00;;;;;;;;;;5005163;28;88954;-65
2023/12/31 12:34:12;;;;;;;2.47;0.75;;;;;;;;;;5000215;28;88171;-66
2023/12/31 12:36:39;;;;;;;5.25;1.60;;;;;;;;;;5000230;28;89531;-67
2023/12/31 12:39:05;;;;;;;6.93;1.63;;;;;;;;;;5004442;28;89456;-68
2023/12/31 12:41:32;;;;;;;4.90;1.50;;;;;;;;;;5007823;28;88181;-68
2023/12/31 12:44:00;;;;;;;5.90;1.25;;;;;;;;;;5002168;28;88350;-67
2023/12/31 12:46:29;;;;;;;5.00;1.52;;;;;;;;;;5004794;28;89028;-65
2023/12/31 12:48:56;;;;;;;7.97;1.50;;;;;;;;;;5001694;28;88850;-64
2023/12/31 12:51:23;;;;;;;7.60;1.63;;;;;;;;;;4998451;28;89763;-66
2023/12/31 12:53:50;;;;;;;4.55;1.10;;;;;;;;;;5003864;28;88394;-65
2023/12/31 12:56:17;;;;;;;3.45;1.10;;;;;;;;;;5006330;28;88598;-66
2023/12/31 12:58:44;;;;;;;1.77;1.02;;;;;;;;;;5008054;28;88994;-68
2023/12/31 13:01:11;;;;;;;9.95;3.67;;;;;;;;;;5000922;28;88120;-65
2023/12/31 13:03:38;;;;;;;7.57;2.75;;;;;;;;;;5003228;28;88752;-64
2023/12/31 13:06:04;;;;;;;10.45;1.92;;;;;;;;;;5000573;28;88284;-64
2023/12/31 13:08:31;;;;;;;5.30;1.25;;;;;;;;;;5006108;28;88879;-64
2023/12/31 13:11:00;;;;;;;6.82;1.17;;;;;;;;;;4998354;28;88726;-66
2023/12/31 13:13:26;;;;;;;5.05;0.90;;;;;;;;;;5006839;28;90113;-68
2023/12/31 13:15:52;;;;;;;4.00;1.27;;;;;;;;;;5010485;28;88016;-67
2023/12/31 13:18:19;;;;;;;9.90;1.27;;;;;;;;;;5002410;28;89289;-67
2023/12/31 13:20:45;;;;;;;6.82;1.17;;;;;;;;;;5007564;28;88067;-67
2023/12/31 13:23:13;;;;;;;11.20;1.70;;;;;;;;;;5001969;28;88101;-64
2023/12/31 13:25:39;;;;;;;10.18;1.45;;;;;;;;;;5006518;28;88406;-64
2023/12/31 13:28:06;;;;;;;7.15;1.65;;;;;;;;;;5004423;28;88408;-64
2023/12/31 13:30:32;;;;;;;8.25;2.05;;;;;;;;;;5004447;28;88717;-64
2023/12/31 13:33:01;;;;;;;9.52;1.52;;;;;;;;;;5004577;28;89947;-63
2023/12/31 13:35:28;;;;;;;8.13;2.10;;;;;;;;;;5004071;28;88138;-63
2023/12/31 13:37:55;;;;;;;14.02;2.35;;;;;;;;;;5005347;28;89984;-63
2023/12/31 13:40:21;;;;;;;10.43;1.70;;;;;;;;;;5004931;28;90845;-64
2023/12/31 13:42:48;;;;;;;6.88;1.45;;;;;;;;;;5007349;28;89452;-62
2023/12/31 13:45:14;;;;;;;10.07;1.80;;;;;;;;;;5003821;28;89300;-65
2023/12/31 13:47:41;;;;;;;11.13;2.25;;;;;;;;;;5003690;28;88174;-65
2023/12/31 13:50:07;;;;;;;23.27;10.38;;;;;;;;;;5002441;28;89059;-65
2023/12/31 13:52:34;;;;;;;8.57;1.63;;;;;;;;;;5001987;28;89207;-66
2023/12/31 13:55:00;;;;;;;7.50;2.10;;;;;;;;;;4999602;28;90116;-66
2023/12/31 13:57:26;;;;;;;11.70;2.50;;;;;;;;;;5008646;28;88097;-66
2023/12/31 13:59:53;;;;;;;3.40;1.50;;;;;;;;;;5003559;28;88240;-70
2023/12/31 14:02:23;;;;;;;4.63;1.50;;;;;;;;;;4999584;28;89913;-67
2023/12/31 14:04:50;;;;;;;6.68;2.10;;;;;;;;;;5001318;28;88907;-66
2023/12/31 14:07:16;;;;;;;5.88;1.73;;;;;;;;;;5000511;28;88156;-65
2023/12/31 14:09:42;;;;;;;8.15;1.67;;;;;;;;;;5004904;28;89018;-65
2023/12/31 14:12:22;;;;;;;6.22;1.63;;;;;;;;;;5003995;28;89445;-66
2023/12/31 14:14:50;;;;;;;13.23;4.40;;;;;;;;;;4994438;28;90674;-67
2023/12/31 14:17:17;;;;;;;9.93;2.42;;;;;;;;;;4996363;28;89069;-66
2023/12/31 14:19:44;;;;;;;7.38;1.52;;;;;;;;;;5007584;28;88164;-75
2023/12/31 14:22:10;;;;;;;7.28;2.13;;;;;;;;;;5000157;28;89622;-76
2023/12/31 14:24:37;;;;;;;13.55;2.25;;;;;;;;;;4999226;28;89364;-78
2023/12/31 14:27:04;;;;;;;9.73;3.03;;;;;;;;;;5002125;28;89243;-77
2023/12/31 14:29:30;;;;;;;6.80;2.72;;;;;;;;;;5000921;28;89541;-73
2023/12/31 14:31:56;;;;;;;30.33;10.38;;;;;;;;;;4995787;28;89020;-76
2023/12/31 14:34:23;;;;;;;8.23;2.55;;;;;;;;;;4998185;28;89057;-72
2023/12/31 14:36:49;;;;;;;7.45;3.38;;;;;;;;;;5003567;28;88768;-73
2023/12/31 14:39:18;;;;;;;12.25;3.35;;;;;;;;;;5000812;28;90371;-68